Time;durP1;ratioP1;P1;durP2;ratioP2;P2;SDS_P1;SDS_P2;PMS_P1;PMS_P2;Temp;Humidity;BMP_temperature;BMP_pressure;BME280_temperature;BME280_humidity;BME280_pressure;Samples;Min_cycle;Max_cycle;Signal;HPM_P1;HPM_P2
2022/09/21 00:00:50;;;;;;;2.33;1.93;;;11.30;94.70;;;;;;6246868;28;20475;-74
2022/09/21 00:03:54;;;;;;;2.83;2.23;;;11.20;95.10;;;;;;6239184;28;20472;-72
2022/09/21 00:06:58;;;;;;;3.23;1.80;;;11.20;95.30;;;;;;6236803;28;20851;-73
2022/09/21 00:10:02;;;;;;;3.80;2.93;;;11.20;95.50;;;;;;6238092;28;20843;-73
2022/09/21 00:13:07;;;;;;;5.17;3.50;;;11.20;95.60;;;;;;6236821;28;20525;-73
2022/09/21 00:16:10;;;;;;;8.63;4.40;;;11.20;95.80;;;;;;6240581;28;20468;-73
2022/09/21 00:19:15;;;;;;;5.97;3.73;;;11.20;96.10;;;;;;6240572;28;20475;-74
2022/09/21 00:22:18;;;;;;;3.77;2.83;;;11.20;96.30;;;;;;6238063;28;20490;-73
2022/09/21 00:25:23;;;;;;;3.13;2.83;;;11.30;96.50;;;;;;6239753;28;20480;-74
2022/09/21 00:28:26;;;;;;;3.83;2.47;;;11.30;96.60;;;;;;6238105;28;20681;-74
2022/09/21 00:31:31;;;;;;;3.00;2.40;;;11.20;96.40;;;;;;6240303;28;20530;-74
2022/09/21 00:34:34;;;;;;;3.33;2.43;;;11.20;96.50;;;;;;6246808;28;20471;-73
2022/09/21 00:37:37;;;;;;;2.20;2.00;;;11.10;96.50;;;;;;6242687;28;20475;-73
2022/09/21 00:40:42;;;;;;;4.00;2.10;;;11.00;96.40;;;;;;6251350;28;20482;-73
2022/09/21 00:43:47;;;;;;;2.27;1.83;;;11.00;96.60;;;;;;6251208;28;20473;-73
2022/09/21 00:46:53;;;;;;;2.63;2.20;;;11.00;96.70;;;;;;6251416;28;20468;-73
2022/09/21 00:49:59;;;;;;;2.23;1.77;;;11.00;96.70;;;;;;6252549;28;20479;-73
2022/09/21 00:53:05;;;;;;;3.73;1.93;;;11.00;96.70;;;;;;6255115;28;20479;-73
2022/09/21 00:56:11;;;;;;;1.87;1.73;;;10.90;96.80;;;;;;6251560;28;20475;-74
2022/09/21 00:59:16;;;;;;;2.83;1.50;;;10.90;97.10;;;;;;6251228;28;20470;-73
2022/09/21 01:02:23;;;;;;;1.60;1.50;;;10.90;97.10;;;;;;6250724;28;20479;-73
2022/09/21 01:05:27;;;;;;;1.30;1.20;;;10.90;97.30;;;;;;6250812;28;20483;-73
2022/09/21 01:08:32;;;;;;;1.60;1.27;;;10.90;97.40;;;;;;6250841;28;20471;-74
2022/09/21 01:11:47;;;;;;;2.80;1.27;;;10.90;97.50;;;;;;6250433;28;21032;-73
2022/09/21 01:15:11;;;;;;;1.47;1.37;;;10.90;97.30;;;;;;6250769;28;20597;-73
2022/09/21 01:18:21;;;;;;;1.67;1.40;;;10.90;97.40;;;;;;6253801;28;20459;-74
2022/09/21 01:21:25;;;;;;;1.83;1.33;;;10.80;97.30;;;;;;6275126;28;20761;-73
2022/09/21 01:24:42;;;;;;;1.33;1.17;;;10.80;97.30;;;;;;6275471;28;20470;-73
2022/09/21 01:28:07;;;;;;;1.33;1.23;;;10.80;97.30;;;;;;6275309;28;20825;-73
2022/09/21 01:31:18;;;;;;;4.40;4.00;;;10.80;97.30;;;;;;6275091;28;20961;-73
2022/09/21 01:34:28;;;;;;;2.70;2.20;;;10.80;97.30;;;;;;6275015;28;20471;-73
2022/09/21 01:37:38;;;;;;;2.50;1.93;;;10.80;97.20;;;;;;6275477;28;20481;-73
2022/09/21 01:40:43;;;;;;;2.37;1.63;;;10.80;97.20;;;;;;6266278;28;20470;-73
2022/09/21 01:43:50;;;;;;;2.00;1.60;;;10.80;97.30;;;;;;6274813;28;20467;-73
2022/09/21 01:46:56;;;;;;;1.50;1.40;;;10.80;97.40;;;;;;6274988;28;20958;-73
2022/09/21 01:50:02;;;;;;;1.30;1.20;;;10.80;97.40;;;;;;6274643;28;20949;-73
2022/09/21 01:53:11;;;;;;;1.20;1.10;;;10.80;97.40;;;;;;6274629;28;20976;-74
2022/09/21 01:56:19;;;;;;;1.93;1.40;;;10.70;97.30;;;;;;6275057;28;20470;-72
2022/09/21 01:59:28;;;;;;;3.37;1.67;;;10.80;97.40;;;;;;6274912;28;20475;-72
2022/09/21 02:02:40;;;;;;;1.40;1.20;;;10.80;97.40;;;;;;6275708;28;20790;-72
2022/09/21 02:05:43;;;;;;;1.80;1.43;;;10.80;97.30;;;;;;6275348;28;20470;-74
2022/09/21 02:08:47;;;;;;;2.10;1.60;;;10.80;97.50;;;;;;6274612;28;21028;-74
2022/09/21 02:11:50;;;;;;;3.43;1.33;;;10.70;97.50;;;;;;6275113;28;20470;-73
2022/09/21 02:14:54;;;;;;;1.23;1.13;;;10.70;97.60;;;;;;6275928;28;20539;-73
2022/09/21 02:18:05;;;;;;;1.77;1.47;;;10.70;97.80;;;;;;6275202;28;20529;-74
2022/09/21 02:21:17;;;;;;;2.10;1.50;;;10.60;97.80;;;;;;6275929;28;20454;-73
2022/09/21 02:24:30;;;;;;;1.23;1.13;;;10.50;97.80;;;;;;6274813;28;20513;-73
2022/09/21 02:27:39;;;;;;;1.40;1.30;;;10.60;97.90;;;;;;6277379;28;20474;-73
2022/09/21 02:30:52;;;;;;;1.30;1.20;;;10.60;97.90;;;;;;6278341;28;20470;-73
2022/09/21 02:34:00;;;;;;;1.20;1.00;;;10.60;97.80;;;;;;6285192;28;20848;-73
2022/09/21 02:37:12;;;;;;;1.47;1.20;;;10.50;97.70;;;;;;6282140;28;20470;-74
2022/09/21 02:40:24;;;;;;;1.20;1.00;;;10.50;97.70;;;;;;6277780;28;20859;-73
2022/09/21 02:43:31;;;;;;;1.40;1.30;;;10.50;97.70;;;;;;6269004;28;20530;-73
2022/09/21 02:46:38;;;;;;;2.03;1.30;;;10.50;97.80;;;;;;6279493;28;20466;-74
2022/09/21 02:49:46;;;;;;;2.03;1.40;;;10.50;98.00;;;;;;6276626;28;20467;-73
2022/09/21 02:52:50;;;;;;;1.80;1.23;;;10.50;97.80;;;;;;6274753;28;20498;-73
2022/09/21 02:55:54;;;;;;;1.60;1.17;;;10.50;97.80;;;;;;6274942;28;20485;-73
2022/09/21 02:59:03;;;;;;;1.43;1.33;;;10.50;97.90;;;;;;6280176;28;20478;-74
2022/09/21 03:02:06;;;;;;;1.07;0.97;;;10.40;97.90;;;;;;6279464;28;20485;-74
2022/09/21 03:05:13;;;;;;;1.93;1.37;;;10.40;97.90;;;;;;6278795;28;20845;-74
2022/09/21 03:08:16;;;;;;;1.60;1.37;;;10.40;97.90;;;;;;6278360;28;20855;-73
2022/09/21 03:11:20;;;;;;;1.70;1.40;;;10.30;98.00;;;;;;6277998;28;20970;-72
2022/09/21 03:14:23;;;;;;;1.33;1.23;;;10.30;98.00;;;;;;6278176;28;20532;-73
2022/09/21 03:17:26;;;;;;;1.13;1.03;;;10.30;97.90;;;;;;6278293;28;20474;-72
2022/09/21 03:20:31;;;;;;;1.73;1.40;;;10.10;98.00;;;;;;6277815;28;20482;-72
2022/09/21 03:23:34;;;;;;;3.03;1.70;;;10.00;98.30;;;;;;6277769;28;21029;-72
2022/09/21 03:26:37;;;;;;;1.70;1.60;;;10.00;98.70;;;;;;6277781;28;20980;-73
2022/09/21 03:29:41;;;;;;;1.90;1.40;;;9.80;99.40;;;;;;6277845;28;20477;-73
2022/09/21 03:32:44;;;;;;;2.63;1.33;;;9.70;99.80;;;;;;6277780;28;20493;-73
2022/09/21 03:35:49;;;;;;;2.07;1.87;;;9.60;99.90;;;;;;6277577;28;20571;-72
2022/09/21 03:38:53;;;;;;;2.00;1.73;;;9.50;99.90;;;;;;6277682;28;20471;-72
2022/09/21 03:41:56;;;;;;;2.53;1.60;;;9.40;99.90;;;;;;6277697;28;20556;-72
2022/09/21 03:44:59;;;;;;;1.30;1.20;;;9.20;99.90;;;;;;6268637;28;20447;-72
2022/09/21 03:48:02;;;;;;;1.63;1.53;;;9.10;99.90;;;;;;6277538;28;20458;-73
2022/09/21 03:51:07;;;;;;;2.13;1.10;;;9.00;99.90;;;;;;6277539;28;20478;-72
2022/09/21 03:54:11;;;;;;;2.03;1.50;;;9.00;99.90;;;;;;6277048;28;20914;-72
2022/09/21 03:57:14;;;;;;;1.40;1.30;;;9.00;99.90;;;;;;6277562;28;20527;-72
2022/09/21 04:00:18;;;;;;;3.13;1.80;;;9.00;99.90;;;;;;6277386;28;20473;-72
2022/09/21 04:03:21;;;;;;;4.93;1.97;;;9.00;99.90;;;;;;6277236;28;20473;-72
2022/09/21 04:06:26;;;;;;;3.50;1.67;;;9.00;99.90;;;;;;6276956;28;20466;-72
2022/09/21 04:09:30;;;;;;;2.37;1.67;;;9.10;99.90;;;;;;6277331;28;20466;-72
2022/09/21 04:12:35;;;;;;;1.50;1.33;;;9.20;99.90;;;;;;6276647;28;20917;-72
2022/09/21 04:15:38;;;;;;;2.87;1.70;;;9.20;99.90;;;;;;6276932;28;20486;-72
2022/09/21 04:18:41;;;;;;;3.90;1.70;;;9.20;99.90;;;;;;6276776;28;20474;-72
2022/09/21 04:21:45;;;;;;;1.60;1.33;;;9.10;99.90;;;;;;6277534;28;20539;-72
2022/09/21 04:24:48;;;;;;;2.30;1.50;;;9.10;99.90;;;;;;6277111;28;20493;-73
2022/09/21 04:27:51;;;;;;;4.50;1.90;;;9.30;99.90;;;;;;6276828;28;20472;-73
2022/09/21 04:30:55;;;;;;;4.70;1.83;;;9.30;99.90;;;;;;6276502;28;20950;-73
2022/09/21 04:33:58;;;;;;;2.10;1.70;;;9.30;99.90;;;;;;6277045;28;20535;-74
2022/09/21 04:37:03;;;;;;;5.03;1.83;;;9.40;99.90;;;;;;6276793;28;20462;-73
2022/09/21 04:40:08;;;;;;;2.10;1.87;;;9.30;99.90;;;;;;6276285;28;20466;-73
2022/09/21 04:43:11;;;;;;;2.30;1.53;;;9.30;99.90;;;;;;6276341;28;20486;-73
2022/09/21 04:46:16;;;;;;;2.90;1.87;;;9.40;99.90;;;;;;6276169;28;20477;-73
2022/09/21 04:49:20;;;;;;;4.10;1.97;;;9.40;99.90;;;;;;6266812;28;20617;-74
2022/09/21 04:52:24;;;;;;;1.53;1.40;;;9.40;99.90;;;;;;6275923;28;20481;-74
2022/09/21 04:55:27;;;;;;;2.00;1.33;;;9.30;99.90;;;;;;6275587;28;20531;-74
2022/09/21 04:58:31;;;;;;;2.50;1.80;;;9.40;99.90;;;;;;6275962;28;20478;-74
2022/09/21 05:01:34;;;;;;;1.40;1.30;;;9.40;99.90;;;;;;6275569;28;20490;-74
2022/09/21 05:04:37;;;;;;;5.03;1.80;;;9.50;99.90;;;;;;6275621;28;20489;-74
2022/09/21 05:07:42;;;;;;;2.47;1.70;;;9.50;99.90;;;;;;6276418;28;20511;-73
2022/09/21 05:10:44;;;;;;;3.80;1.63;;;9.50;99.90;;;;;;6275329;28;20490;-73
2022/09/21 05:13:47;;;;;;;3.10;1.90;;;9.60;99.90;;;;;;6275578;28;20474;-74
2022/09/21 05:16:50;;;;;;;7.67;2.10;;;9.50;99.90;;;;;;6275663;28;20470;-74
2022/09/21 05:19:54;;;;;;;1.67;1.53;;;9.60;99.90;;;;;;6274712;28;20477;-75
2022/09/21 05:23:01;;;;;;;3.00;1.57;;;9.60;99.90;;;;;;6275407;28;20477;-74
2022/09/21 05:26:05;;;;;;;2.40;2.20;;;9.60;99.90;;;;;;6275611;28;20470;-74
2022/09/21 05:29:09;;;;;;;2.50;2.27;;;9.50;99.90;;;;;;6275901;28;20470;-74
2022/09/21 05:32:20;;;;;;;2.30;2.10;;;9.60;99.90;;;;;;6275012;28;20497;-74
2022/09/21 05:35:30;;;;;;;2.17;1.83;;;9.70;99.90;;;;;;6275406;28;20818;-74
2022/09/21 05:38:35;;;;;;;6.00;2.20;;;9.60;99.90;;;;;;6275941;28;20577;-74
2022/09/21 05:41:39;;;;;;;2.23;2.03;;;9.60;99.90;;;;;;6274806;28;20502;-73
2022/09/21 05:44:42;;;;;;;2.90;1.90;;;9.60;99.90;;;;;;6275614;28;20794;-73
2022/09/21 05:48:04;;;;;;;1.80;1.57;;;9.60;99.90;;;;;;6276073;28;20531;-74
2022/09/21 05:51:21;;;;;;;2.50;2.30;;;9.70;99.90;;;;;;6266707;28;20512;-72
2022/09/21 05:54:38;;;;;;;4.17;3.77;;;9.80;99.90;;;;;;6275356;28;20473;-69
2022/09/21 05:57:50;;;;;;;2.70;2.50;;;9.90;99.90;;;;;;6274591;28;20485;-69
2022/09/21 06:01:05;;;;;;;3.30;2.63;;;9.90;99.90;;;;;;6274599;28;20485;-69
2022/09/21 06:04:11;;;;;;;3.20;2.90;;;10.00;99.90;;;;;;6274736;28;20854;-70
2022/09/21 06:07:14;;;;;;;2.67;2.40;;;10.00;99.90;;;;;;6276964;28;20794;-71
2022/09/21 06:10:19;;;;;;;2.47;2.10;;;10.00;99.90;;;;;;6276647;28;20505;-70
2022/09/21 06:13:22;;;;;;;4.10;2.53;;;10.10;99.90;;;;;;6277625;28;20504;-70
2022/09/21 06:16:25;;;;;;;3.43;2.40;;;10.10;99.90;;;;;;6275446;28;20477;-71
2022/09/21 06:19:28;;;;;;;3.33;1.73;;;10.20;99.90;;;;;;6275083;28;20462;-70
2022/09/21 06:22:32;;;;;;;2.87;1.70;;;10.10;99.90;;;;;;6274366;28;20530;-69
2022/09/21 06:25:36;;;;;;;2.33;2.07;;;10.20;99.90;;;;;;6274553;28;20599;-68
2022/09/21 06:28:39;;;;;;;2.33;2.13;;;10.30;99.90;;;;;;6274681;28;20497;-69
2022/09/21 06:31:42;;;;;;;2.27;1.90;;;10.50;99.90;;;;;;6276839;28;20531;-69
2022/09/21 06:34:46;;;;;;;2.10;1.73;;;10.70;99.90;;;;;;6286237;28;20485;-70
2022/09/21 06:37:49;;;;;;;3.00;1.90;;;10.90;99.90;;;;;;6282931;28;20470;-70
2022/09/21 06:40:54;;;;;;;2.50;1.93;;;11.10;99.90;;;;;;6278936;28;20482;-70
2022/09/21 06:43:57;;;;;;;2.43;1.33;;;12.30;99.70;;;;;;6279252;28;20477;-70
2022/09/21 06:47:00;;;;;;;1.60;1.40;;;14.00;95.60;;;;;;6278874;28;20551;-70
2022/09/21 06:50:04;;;;;;;3.00;1.60;;;14.30;92.60;;;;;;6278940;28;20485;-70
2022/09/21 06:53:07;;;;;;;2.30;2.00;;;14.20;91.90;;;;;;6278884;28;20501;-71
2022/09/21 06:56:12;;;;;;;2.03;1.87;;;14.20;92.30;;;;;;6269316;28;20551;-71
2022/09/21 06:59:15;;;;;;;2.10;1.30;;;15.00;92.90;;;;;;6278693;28;20482;-71
2022/09/21 07:02:18;;;;;;;1.80;1.50;;;17.90;85.70;;;;;;6279683;28;20544;-72
2022/09/21 07:05:21;;;;;;;1.17;1.00;;;21.10;70.10;;;;;;6280180;28;20474;-71
2022/09/21 07:08:25;;;;;;;2.00;1.03;;;23.60;55.90;;;;;;6278195;28;20227;-71
2022/09/21 07:11:50;;;;;;;2.17;1.60;;;25.50;48.50;;;;;;6279407;28;20296;-69
2022/09/21 07:14:53;;;;;;;3.10;1.00;;;27.20;41.80;;;;;;6277895;28;20227;-71
2022/09/21 07:17:56;;;;;;;1.30;1.00;;;28.30;38.80;;;;;;6278199;28;20681;-72
2022/09/21 07:21:09;;;;;;;1.10;0.90;;;29.50;36.50;;;;;;6277773;28;20249;-71
2022/09/21 07:24:13;;;;;;;2.13;1.50;;;30.40;32.30;;;;;;6273288;28;20196;-73
2022/09/21 07:27:18;;;;;;;2.00;1.13;;;30.90;30.40;;;;;;6276302;28;20203;-71
2022/09/21 07:30:21;;;;;;;1.13;1.03;;;30.80;29.30;;;;;;6276813;28;20231;-75
2022/09/21 07:33:25;;;;;;;1.27;1.07;;;30.60;29.30;;;;;;6277699;28;20238;-73
2022/09/21 07:36:28;;;;;;;1.25;1.13;;;30.40;29.30;;;;;;6277834;28;20242;-74
2022/09/21 07:39:31;;;;;;;1.35;1.10;;;30.70;29.30;;;;;;6277846;28;20238;-74
2022/09/21 07:42:35;;;;;;;1.00;0.85;;;31.50;28.20;;;;;;6277891;28;20238;-73
2022/09/21 07:45:39;;;;;;;1.85;1.08;;;31.40;27.70;;;;;;6277954;28;20318;-73
2022/09/21 07:48:42;;;;;;;2.53;1.27;;;31.60;27.50;;;;;;6262028;28;20245;-73
2022/09/21 07:51:45;;;;;;;1.70;1.25;;;32.80;27.20;;;;;;6267240;28;20674;-73
2022/09/21 07:54:48;;;;;;;2.22;1.20;;;34.00;25.80;;;;;;6266576;28;20659;-74
2022/09/21 08:01:13;;;;;;;1.83;1.00;;;35.10;24.60;;;;;;6267516;28;20738;-74
2022/09/21 08:04:17;;;;;;;1.17;1.08;;;36.60;23.10;;;;;;6262760;28;20663;-74
2022/09/21 08:07:20;;;;;;;1.17;0.90;;;35.40;22.60;;;;;;6264240;28;20301;-74
2022/09/21 08:10:27;;;;;;;3.55;1.38;;;33.40;23.90;;;;;;6267774;28;20227;-73
2022/09/21 08:13:32;;;;;;;1.38;0.95;;;33.50;24.40;;;;;;6275973;28;20227;-74
2022/09/21 08:16:38;;;;;;;1.13;0.70;;;35.30;23.80;;;;;;6274865;28;20249;-74
2022/09/21 08:19:41;;;;;;;1.15;0.80;;;37.00;22.20;;;;;;6275539;28;20291;-69
2022/09/21 08:22:44;;;;;;;1.17;1.08;;;38.10;21.70;;;;;;6264561;28;20223;-67
2022/09/21 08:25:47;;;;;;;1.20;0.93;;;39.00;21.90;;;;;;6272258;28;20260;-68
2022/09/21 08:28:56;;;;;;;1.27;0.88;;;40.20;21.40;;;;;;6278651;28;20273;-67
2022/09/21 08:32:03;;;;;;;2.55;0.98;;;41.20;20.60;;;;;;6266776;28;20224;-68
2022/09/21 08:35:07;;;;;;;1.13;0.80;;;42.20;18.80;;;;;;6253679;28;20237;-69
2022/09/21 08:38:11;;;;;;;1.75;1.08;;;42.90;18.60;;;;;;6276632;28;20237;-71
2022/09/21 08:41:20;;;;;;;2.13;1.05;;;44.20;17.30;;;;;;6277756;28;20247;-72
2022/09/21 08:44:28;;;;;;;1.40;1.00;;;44.90;16.30;;;;;;6277453;28;20679;-71
2022/09/21 08:47:40;;;;;;;1.63;1.20;;;44.00;15.30;;;;;;6277229;28;20230;-70
2022/09/21 08:50:48;;;;;;;1.80;0.95;;;42.70;16.40;;;;;;6277096;28;20228;-70
2022/09/21 08:53:54;;;;;;;0.82;0.57;;;40.90;16.60;;;;;;6276433;28;20231;-71
2022/09/21 08:56:57;;;;;;;0.80;0.60;;;37.40;18.00;;;;;;6276718;28;20793;-71
2022/09/21 09:00:15;;;;;;;2.35;0.90;;;33.80;20.20;;;;;;6272330;28;20208;-72
2022/09/21 09:03:34;;;;;;;3.27;0.70;;;30.20;23.10;;;;;;6276539;28;20219;-73
2022/09/21 09:06:51;;;;;;;0.93;0.60;;;27.80;25.20;;;;;;6276797;28;20219;-72
2022/09/21 09:10:08;;;;;;;0.90;0.80;;;25.30;27.80;;;;;;6276035;28;20239;-72
2022/09/21 09:13:31;;;;;;;2.10;0.80;;;23.50;29.40;;;;;;6275832;28;20596;-68
2022/09/21 09:16:48;;;;;;;0.90;0.60;;;22.20;31.30;;;;;;6275769;28;20378;-69
2022/09/21 09:19:58;;;;;;;1.27;0.77;;;21.20;32.70;;;;;;6274931;28;20231;-69
2022/09/21 09:23:09;;;;;;;1.27;0.70;;;20.60;33.80;;;;;;6237017;28;20252;-69
2022/09/21 09:26:18;;;;;;;0.83;0.40;;;20.80;34.10;;;;;;6244333;28;20251;-69
2022/09/21 09:29:28;;;;;;;0.63;0.57;;;21.20;34.10;;;;;;6251317;28;20240;-70
2022/09/21 09:32:41;;;;;;;0.80;0.50;;;23.60;32.00;;;;;;6241960;28;20285;-70
2022/09/21 09:35:49;;;;;;;1.60;0.80;;;28.10;28.20;;;;;;6251794;28;20251;-70
2022/09/21 09:38:57;;;;;;;1.10;0.90;;;29.90;25.10;;;;;;6250863;28;20227;-70
2022/09/21 09:42:34;;;;;;;0.93;0.60;;;28.20;25.60;;;;;;6275852;28;20238;-68
2022/09/21 09:45:46;;;;;;;1.20;0.70;;;26.30;27.20;;;;;;6251210;28;20242;-69
2022/09/21 09:49:12;;;;;;;0.90;0.50;;;25.00;29.00;;;;;;6250277;28;20236;-70
2022/09/21 09:52:16;;;;;;;1.70;0.60;;;23.80;30.00;;;;;;6249810;28;20241;-70
2022/09/21 09:55:24;;;;;;;2.60;0.90;;;23.20;31.20;;;;;;6250511;28;20239;-69
2022/09/21 09:58:37;;;;;;;0.80;0.50;;;23.90;30.10;;;;;;6250091;28;20228;-69
2022/09/21 10:01:42;;;;;;;1.00;0.60;;;25.70;29.60;;;;;;6249466;28;20696;-70
2022/09/21 10:05:02;;;;;;;1.33;0.70;;;29.80;25.90;;;;;;6245890;28;20350;-70
2022/09/21 10:08:06;;;;;;;0.88;0.57;;;32.60;23.60;;;;;;6267541;28;20228;-69
2022/09/21 10:11:11;;;;;;;0.95;0.70;;;35.30;21.40;;;;;;6256501;28;20294;-69
2022/09/21 10:14:19;;;;;;;2.78;0.90;;;37.90;20.20;;;;;;6255021;28;20232;-69
2022/09/21 10:17:24;;;;;;;0.65;0.45;;;39.10;18.00;;;;;;6254817;28;20235;-69
2022/09/21 10:20:31;;;;;;;1.42;1.05;;;37.70;18.30;;;;;;6254518;28;20247;-69
2022/09/21 10:23:36;;;;;;;1.00;0.63;;;34.30;19.60;;;;;;6262301;28;20551;-69
2022/09/21 10:26:45;;;;;;;1.20;0.80;;;31.00;22.10;;;;;;6262384;28;20242;-69
2022/09/21 10:29:49;;;;;;;1.20;0.70;;;28.20;24.60;;;;;;6260517;28;20239;-69
2022/09/21 10:32:56;;;;;;;1.20;0.83;;;26.10;26.70;;;;;;6257186;28;20290;-69
2022/09/21 10:36:01;;;;;;;1.20;0.53;;;24.90;28.40;;;;;;6254987;28;20738;-68
2022/09/21 10:39:19;;;;;;;1.27;0.60;;;23.90;29.50;;;;;;6241619;28;20293;-69
2022/09/21 10:42:23;;;;;;;1.33;1.00;;;23.10;30.40;;;;;;6255919;28;20233;-69
2022/09/21 10:45:27;;;;;;;1.47;0.80;;;22.40;31.80;;;;;;6256027;28;20232;-69
2022/09/21 10:48:31;;;;;;;0.80;0.80;;;21.80;33.20;;;;;;6258818;28;20560;-69
2022/09/21 10:51:35;;;;;;;0.80;0.60;;;21.30;33.70;;;;;;6256538;28;20550;-69
2022/09/21 10:54:42;;;;;;;3.20;0.70;;;20.90;34.70;;;;;;6244640;28;20244;-69
2022/09/21 10:57:46;;;;;;;0.97;0.70;;;20.40;36.10;;;;;;6241339;28;20228;-69
2022/09/21 11:00:52;;;;;;;0.80;0.63;;;20.00;36.40;;;;;;6241838;28;20225;-70
2022/09/21 11:04:00;;;;;;;1.70;0.87;;;19.70;37.00;;;;;;6239650;28;20228;-69
2022/09/21 11:07:14;;;;;;;3.17;0.80;;;19.60;37.50;;;;;;6236516;28;20225;-69
2022/09/21 11:10:24;;;;;;;0.80;0.60;;;19.70;37.00;;;;;;6243253;28;20228;-69
2022/09/21 11:13:31;;;;;;;3.67;1.00;;;19.80;35.60;;;;;;6237153;28;20221;-68
2022/09/21 11:16:41;;;;;;;1.20;0.50;;;19.80;35.60;;;;;;6227919;28;20751;-68
2022/09/21 11:19:52;;;;;;;0.87;0.63;;;21.50;36.30;;;;;;6238720;28;20244;-68
2022/09/21 11:23:03;;;;;;;0.70;0.50;;;24.20;33.30;;;;;;6246053;28;20680;-68
2022/09/21 11:26:12;;;;;;;1.37;0.60;;;26.20;30.10;;;;;;6246876;28;20224;-67
2022/09/21 11:29:23;;;;;;;0.80;0.60;;;26.70;29.30;;;;;;6238591;28;20228;-69
2022/09/21 11:32:46;;;;;;;1.13;0.70;;;26.30;28.50;;;;;;6228170;28;20255;-67
2022/09/21 11:35:59;;;;;;;0.90;0.60;;;25.50;29.00;;;;;;6227851;28;20236;-67
2022/09/21 11:39:14;;;;;;;2.87;0.70;;;24.60;30.40;;;;;;6251980;28;20239;-69
2022/09/21 11:42:39;;;;;;;2.20;0.70;;;23.80;31.30;;;;;;6252348;28;20240;-68
2022/09/21 11:45:56;;;;;;;2.60;0.70;;;23.20;31.80;;;;;;6252312;28;20305;-68
2022/09/21 11:49:16;;;;;;;0.80;0.60;;;22.70;33.30;;;;;;6252148;28;20240;-68
2022/09/21 11:52:35;;;;;;;1.83;0.90;;;22.30;33.60;;;;;;6252376;28;20298;-68
2022/09/21 11:56:01;;;;;;;1.53;0.93;;;22.10;34.20;;;;;;6252275;28;20306;-68
2022/09/21 11:59:21;;;;;;;1.30;0.80;;;21.80;34.40;;;;;;6251857;28;20669;-68
2022/09/21 12:03:00;;;;;;;1.07;0.60;;;21.40;34.40;;;;;;6251994;28;20232;-67
2022/09/21 12:06:15;;;;;;;1.03;0.60;;;21.30;35.40;;;;;;6253689;28;20289;-67
2022/09/21 12:09:37;;;;;;;0.90;0.50;;;21.10;34.80;;;;;;6243315;28;20259;-68
2022/09/21 12:12:49;;;;;;;1.20;0.63;;;21.00;35.60;;;;;;6251779;28;20244;-68
2022/09/21 12:16:02;;;;;;;0.70;0.40;;;21.10;35.70;;;;;;6252000;28;20251;-68
2022/09/21 12:19:14;;;;;;;1.90;0.60;;;21.30;35.90;;;;;;6252467;28;20236;-68
2022/09/21 12:22:21;;;;;;;1.00;0.80;;;21.40;34.30;;;;;;6259209;28;20281;-69
2022/09/21 12:25:28;;;;;;;0.83;0.50;;;21.50;34.20;;;;;;6277338;28;20691;-69
2022/09/21 12:28:42;;;;;;;1.20;0.90;;;21.50;34.30;;;;;;6275509;28;20228;-69
2022/09/21 12:31:57;;;;;;;0.70;0.57;;;22.10;33.80;;;;;;6275749;28;20595;-68
2022/09/21 12:35:04;;;;;;;0.73;0.43;;;23.10;32.00;;;;;;6276536;28;20228;-68
2022/09/21 12:38:15;;;;;;;0.97;0.63;;;24.70;31.20;;;;;;6275953;28;20240;-69
2022/09/21 12:41:25;;;;;;;1.10;0.50;;;26.30;28.90;;;;;;6275437;28;20231;-68
2022/09/21 12:44:50;;;;;;;0.90;0.50;;;27.00;27.50;;;;;;6275763;28;20235;-70
2022/09/21 12:48:02;;;;;;;0.90;0.60;;;27.00;26.90;;;;;;6275654;28;20253;-71
2022/09/21 12:51:14;;;;;;;2.80;0.50;;;26.50;27.70;;;;;;6275847;28;20289;-66
2022/09/21 12:54:26;;;;;;;0.60;0.43;;;27.10;27.60;;;;;;6275848;28;20196;-68
2022/09/21 12:57:40;;;;;;;1.30;0.50;;;28.30;26.30;;;;;;6275528;28;20239;-67
2022/09/21 13:01:15;;;;;;;0.80;0.40;;;28.60;25.20;;;;;;6267431;28;20232;-67
2022/09/21 13:04:36;;;;;;;1.20;0.60;;;29.30;24.40;;;;;;6250826;28;20314;-73
2022/09/21 13:07:59;;;;;;;0.70;0.40;;;30.20;23.30;;;;;;6250709;28;20695;-70
2022/09/21 13:11:04;;;;;;;0.63;0.30;;;30.20;23.60;;;;;;6250834;28;20299;-72
2022/09/21 13:14:11;;;;;;;0.80;0.40;;;30.10;23.10;;;;;;6241249;28;20231;-68
2022/09/21 13:17:22;;;;;;;0.90;0.50;;;29.30;23.80;;;;;;6267992;28;20235;-69
2022/09/21 13:20:26;;;;;;;0.70;0.50;;;28.30;25.80;;;;;;6276058;28;20234;-70
2022/09/21 13:23:40;;;;;;;1.70;0.50;;;27.90;26.50;;;;;;6275199;28;20611;-68
2022/09/21 13:26:58;;;;;;;1.00;0.60;;;27.60;26.10;;;;;;6274759;28;20227;-68
2022/09/21 13:30:27;;;;;;;0.73;0.40;;;26.70;27.20;;;;;;6274545;28;20219;-68
2022/09/21 13:33:38;;;;;;;0.90;0.57;;;26.30;27.80;;;;;;6274986;28;20227;-69
2022/09/21 13:36:43;;;;;;;0.70;0.50;;;25.80;28.10;;;;;;6274986;28;20234;-68
2022/09/21 13:39:51;;;;;;;0.83;0.40;;;25.30;28.00;;;;;;6274069;28;20642;-68
2022/09/21 13:43:24;;;;;;;3.60;0.73;;;24.70;29.10;;;;;;6274291;28;20830;-68
2022/09/21 13:46:53;;;;;;;0.70;0.50;;;24.10;29.20;;;;;;6272411;28;20568;-68
2022/09/21 13:50:00;;;;;;;0.70;0.50;;;23.80;29.30;;;;;;6274057;28;20223;-67
2022/09/21 13:53:08;;;;;;;1.20;0.47;;;23.70;29.00;;;;;;6274131;28;20236;-67
2022/09/21 13:56:20;;;;;;;0.70;0.50;;;23.50;29.20;;;;;;6273133;28;20232;-68
2022/09/21 13:59:26;;;;;;;0.67;0.47;;;23.10;28.90;;;;;;6273874;28;20231;-67
2022/09/21 14:02:33;;;;;;;1.83;0.60;;;22.70;29.20;;;;;;6273934;28;20240;-67
2022/09/21 14:05:43;;;;;;;1.23;0.30;;;22.30;29.80;;;;;;6273661;28;20230;-68
2022/09/21 14:08:53;;;;;;;0.93;0.67;;;22.00;30.30;;;;;;6272374;28;20236;-68
2022/09/21 14:12:00;;;;;;;0.50;0.40;;;21.70;30.70;;;;;;6272509;28;20236;-69
2022/09/21 14:15:26;;;;;;;0.67;0.60;;;21.30;32.00;;;;;;6243858;28;20212;-71
2022/09/21 14:18:38;;;;;;;0.70;0.60;;;21.00;32.30;;;;;;6248669;28;20225;-69
2022/09/21 14:22:25;;;;;;;0.80;0.60;;;20.70;33.20;;;;;;6248204;28;20224;-70
2022/09/21 14:25:47;;;;;;;0.70;0.60;;;20.60;33.80;;;;;;6258643;28;20243;-71
2022/09/21 14:28:52;;;;;;;2.57;1.40;;;20.50;32.70;;;;;;6237075;28;20229;-69
2022/09/21 14:31:59;;;;;;;1.17;0.97;;;20.40;32.10;;;;;;6224919;28;20240;-67
2022/09/21 14:35:13;;;;;;;0.63;0.57;;;20.40;32.10;;;;;;6223833;28;20235;-67
2022/09/21 14:38:22;;;;;;;1.90;1.47;;;20.40;31.60;;;;;;6224226;28;20894;-67
2022/09/21 14:41:33;;;;;;;0.80;0.70;;;20.50;32.20;;;;;;6239334;28;20236;-67
2022/09/21 14:44:37;;;;;;;6.00;3.90;;;20.50;33.20;;;;;;6235164;28;20229;-66
2022/09/21 14:47:54;;;;;;;1.40;0.87;;;20.30;35.40;;;;;;6241649;28;20487;-67
2022/09/21 14:51:04;;;;;;;0.60;0.60;;;20.30;36.10;;;;;;6252338;22;20623;-67
2022/09/21 14:54:33;;;;;;;1.27;0.60;;;20.20;37.00;;;;;;6227727;28;20335;-67
2022/09/21 14:58:13;;;;;;;0.80;0.50;;;20.00;36.80;;;;;;6209465;28;20244;-68
2022/09/21 15:01:37;;;;;;;0.70;0.53;;;19.80;37.80;;;;;;6215820;28;20253;-68
2022/09/21 15:04:54;;;;;;;0.80;0.53;;;19.40;38.00;;;;;;6203090;28;20241;-67
2022/09/21 15:11:42;;;;;;;0.70;0.57;;;18.90;38.90;;;;;;6206205;28;20245;-67
2022/09/21 15:14:49;;;;;;;2.70;0.60;;;18.70;39.70;;;;;;6204097;28;20257;-67
2022/09/21 15:17:58;;;;;;;0.67;0.50;;;18.50;39.90;;;;;;6227427;28;20303;-68
2022/09/21 15:21:03;;;;;;;0.97;0.57;;;18.40;40.10;;;;;;6231790;28;20300;-66
2022/09/21 15:24:28;;;;;;;0.70;0.53;;;18.20;40.20;;;;;;6208361;28;20571;-68
2022/09/21 15:27:33;;;;;;;0.67;0.60;;;18.20;41.10;;;;;;6224171;28;20230;-67
2022/09/21 15:30:44;;;;;;;0.60;0.40;;;18.10;40.40;;;;;;6204407;28;20565;-67
2022/09/21 15:33:51;;;;;;;0.60;0.50;;;18.00;41.10;;;;;;6203439;28;20238;-67
2022/09/21 15:37:05;;;;;;;0.90;0.50;;;18.10;40.90;;;;;;6204237;28;20473;-67
2022/09/21 15:40:22;;;;;;;0.60;0.40;;;18.10;41.00;;;;;;6203496;28;20278;-67
2022/09/21 15:43:26;;;;;;;0.80;0.60;;;18.20;40.90;;;;;;6203224;28;20580;-67
2022/09/21 15:46:30;;;;;;;0.87;0.47;;;18.20;40.50;;;;;;6203355;28;20539;-67
2022/09/21 15:49:34;;;;;;;0.80;0.43;;;18.00;40.90;;;;;;6204840;28;20814;-67
2022/09/21 15:52:42;;;;;;;0.80;0.33;;;18.00;41.20;;;;;;6204772;28;20797;-67
2022/09/21 15:55:47;;;;;;;2.73;0.50;;;17.90;41.20;;;;;;6203963;28;20685;-67
2022/09/21 15:58:58;;;;;;;0.57;0.57;;;17.70;40.90;;;;;;6203586;28;20469;-68
2022/09/21 16:02:11;;;;;;;0.60;0.40;;;17.60;41.60;;;;;;6203110;28;20521;-67
2022/09/21 16:05:20;;;;;;;0.87;0.50;;;17.50;41.30;;;;;;6202711;28;20477;-67
2022/09/21 16:08:30;;;;;;;0.63;0.40;;;17.40;41.80;;;;;;6202065;28;20476;-67
2022/09/21 16:11:36;;;;;;;0.60;0.57;;;17.30;42.20;;;;;;6222198;28;20974;-67
2022/09/21 16:14:56;;;;;;;1.00;0.70;;;17.20;42.30;;;;;;6226972;28;20534;-67
2022/09/21 16:18:06;;;;;;;3.10;0.90;;;17.10;42.20;;;;;;6225536;28;20432;-67
2022/09/21 16:21:21;;;;;;;0.90;0.67;;;17.00;42.60;;;;;;6225487;28;20484;-68
2022/09/21 16:24:24;;;;;;;0.80;0.70;;;16.90;43.30;;;;;;6223497;28;20464;-68
2022/09/21 16:27:29;;;;;;;0.90;0.70;;;16.80;43.80;;;;;;6225077;28;20526;-67
2022/09/21 16:30:47;;;;;;;1.10;0.97;;;16.70;43.80;;;;;;6225046;28;20483;-67